Time;durP1;ratioP1;P1;durP2;ratioP2;P2;SDS_P1;SDS_P2;PMS_P1;PMS_P2;Temp;Humidity;BMP_temperature;BMP_pressure;BME280_temperature;BME280_humidity;BME280_pressure;Samples;Min_cycle;Max_cycle;Signal;HPM_P1;HPM_P2
2023/06/08 00:02:13;;;;;;;;;;;;;;;15.04;72.40;101800.53;5049262;28;1184;-84
2023/06/08 00:08:05;;;;;;;;;;;;;;;15.01;71.25;101811.22;5037504;28;1508;-81
2023/06/08 00:13:55;;;;;;;;;;;;;;;14.91;71.89;101810.34;5037817;28;1307;-86
2023/06/08 00:16:24;;;;;;;;;;;;;;;14.94;72.27;101804.88;5043999;28;1298;-83
2023/06/08 00:19:14;;;;;;;;;;;;;;;14.94;71.88;101815.31;5054943;28;1910;-85
2023/06/08 00:21:48;;;;;;;;;;;;;;;14.86;72.94;101801.13;5048606;28;1171;-86
2023/06/08 00:24:21;;;;;;;;;;;;;;;14.83;72.25;101809.22;5039275;28;1447;-87
2023/06/08 00:27:01;;;;;;;;;;;;;;;14.80;72.20;101804.25;5046642;28;1022;-82
2023/06/08 00:29:45;;;;;;;;;;;;;;;14.82;73.63;101804.94;5042791;28;988;-84
2023/06/08 00:32:16;;;;;;;;;;;;;;;14.80;72.52;101804.25;5054974;28;1182;-84
2023/06/08 00:34:53;;;;;;;;;;;;;;;14.79;72.52;101804.38;5041776;28;1390;-87
2023/06/08 00:37:35;;;;;;;;;;;;;;;14.76;73.63;101802.84;5046038;28;1615;-86
2023/06/08 00:40:23;;;;;;;;;;;;;;;14.74;72.90;101802.16;5041212;28;1902;-86
2023/06/08 00:42:51;;;;;;;;;;;;;;;14.73;72.41;101797.88;5042905;28;1341;-87
2023/06/08 00:45:16;;;;;;;;;;;;;;;14.76;72.23;101808.06;5043161;28;1387;-85
2023/06/08 00:47:44;;;;;;;;;;;;;;;14.77;72.43;101799.28;5051362;28;1331;-85
2023/06/08 00:50:12;;;;;;;;;;;;;;;14.74;72.34;101789.09;5054386;28;1339;-85
2023/06/08 00:52:50;;;;;;;;;;;;;;;;;;;;;
2023/06/08 00:55:21;;;;;;;;;;;;;;;14.63;73.11;101791.78;5051840;28;1349;-84
2023/06/08 00:58:11;;;;;;;;;;;;;;;14.53;73.70;101783.88;5059288;28;1156;-88
2023/06/08 01:00:56;;;;;;;;;;;;;;;14.40;73.61;101785.00;5066063;28;1901;-85
2023/06/08 01:04:30;;;;;;;;;;;;;;;14.41;73.51;101786.66;5055335;28;1313;-85
2023/06/08 01:06:39;;;;;;;;;;;;;;;14.40;74.44;101782.41;5048711;28;1216;-86
2023/06/08 01:09:20;;;;;;;;;;;;;;;14.37;73.79;101777.41;5048892;28;1247;-87
2023/06/08 01:11:52;;;;;;;;;;;;;;;14.30;73.65;101777.91;5037894;28;1508;-86
2023/06/08 01:14:38;;;;;;;;;;;;;;;14.23;74.05;101779.38;5045437;28;1671;-85
2023/06/08 01:17:20;;;;;;;;;;;;;;;14.25;74.64;101780.06;5054381;28;1073;-85
2023/06/08 01:20:06;;;;;;;;;;;;;;;14.12;74.81;101781.22;5053202;28;1902;-80
2023/06/08 01:22:46;;;;;;;;;;;;;;;14.06;74.83;101782.53;5054203;28;1218;-84
2023/06/08 01:25:16;;;;;;;;;;;;;;;14.07;74.83;101790.22;5054807;28;1274;-86
2023/06/08 01:27:51;;;;;;;;;;;;;;;14.06;74.72;101780.75;5052912;28;1382;-85
2023/06/08 01:30:20;;;;;;;;;;;;;;;14.10;74.63;101783.91;5033667;28;1552;-81
2023/06/08 01:32:54;;;;;;;;;;;;;;;14.08;74.61;101778.00;5058493;28;1319;-86
2023/06/08 01:35:53;;;;;;;;;;;;;;;;;;;;;
2023/06/08 01:38:44;;;;;;;;;;;;;;;14.03;74.37;101777.56;5057725;28;1055;-81
2023/06/08 01:41:14;;;;;;;;;;;;;;;14.00;75.33;101776.03;5036761;28;1399;-86
2023/06/08 01:43:47;;;;;;;;;;;;;;;13.97;74.78;101780.66;5058050;28;1104;-85
2023/06/08 01:49:47;;;;;;;;;;;;;;;13.87;74.97;101779.72;5046618;28;1406;-85
2023/06/08 01:52:15;;;;;;;;;;;;;;;13.86;75.29;101780.69;5052922;28;1361;-87
2023/06/08 01:54:52;;;;;;;;;;;;;;;13.89;75.78;101783.91;5047693;28;1469;-81
2023/06/08 01:57:25;;;;;;;;;;;;;;;13.88;75.02;101773.56;5043058;28;1357;-84
2023/06/08 02:00:04;;;;;;;;;;;;;;;13.89;76.09;101775.25;5066070;28;1970;-86
2023/06/08 02:02:46;;;;;;;;;;;;;;;;;;;;;
2023/06/08 02:05:16;;;;;;;;;;;;;;;13.83;76.46;101771.34;5051959;28;1242;-85
2023/06/08 02:08:07;;;;;;;;;;;;;;;13.76;75.77;101760.59;5057078;28;1472;-82
2023/06/08 02:10:37;;;;;;;;;;;;;;;13.74;75.75;101762.47;5049057;28;1324;-83
2023/06/08 02:13:10;;;;;;;;;;;;;;;13.72;77.27;101756.56;5052000;28;1447;-87
2023/06/08 02:15:57;;;;;;;;;;;;;;;13.66;76.38;101759.66;5060671;28;1313;-85
2023/06/08 02:18:25;;;;;;;;;;;;;;;13.50;77.73;101754.00;5073226;28;1214;-84
2023/06/08 02:20:52;;;;;;;;;;;;;;;13.50;76.89;101759.22;5045127;28;2036;-87
2023/06/08 02:23:20;;;;;;;;;;;;;;;13.48;77.88;101761.13;5051407;28;1313;-82
2023/06/08 02:25:53;;;;;;;;;;;;;;;13.44;77.39;101754.50;5047150;28;1275;-86
2023/06/08 02:28:18;;;;;;;;;;;;;;;13.45;77.17;101761.34;5049823;28;1236;-83
2023/06/08 02:30:49;;;;;;;;;;;;;;;13.41;77.93;101759.94;5050411;28;1510;-86
2023/06/08 02:33:23;;;;;;;;;;;;;;;13.38;78.48;101754.97;5048687;28;1541;-83
2023/06/08 02:35:51;;;;;;;;;;;;;;;13.36;78.04;101762.06;5048428;28;1202;-87
2023/06/08 02:38:17;;;;;;;;;;;;;;;13.32;77.95;101747.63;5051845;28;1298;-85
2023/06/08 02:40:42;;;;;;;;;;;;;;;13.29;77.52;101752.13;5057790;28;1909;-86
2023/06/08 02:43:08;;;;;;;;;;;;;;;13.29;77.53;101754.72;5052891;28;1490;-82
2023/06/08 02:45:39;;;;;;;;;;;;;;;13.29;77.83;101752.13;5065567;28;1189;-85
2023/06/08 02:48:19;;;;;;;;;;;;;;;13.25;78.98;101755.94;5046967;28;1333;-85
2023/06/08 02:50:45;;;;;;;;;;;;;;;13.22;77.81;101766.59;5052155;28;1302;-84
2023/06/08 02:53:12;;;;;;;;;;;;;;;13.16;78.81;101759.22;5058469;28;1156;-86
2023/06/08 02:55:38;;;;;;;;;;;;;;;13.11;78.16;101748.31;5047322;28;1142;-84
2023/06/08 02:58:03;;;;;;;;;;;;;;;13.07;79.97;101752.09;5043960;28;1411;-83
2023/06/08 03:03:16;;;;;;;;;;;;;;;13.08;78.74;101750.34;5047251;28;1149;-86
2023/06/08 03:05:43;;;;;;;;;;;;;;;13.04;78.69;101741.94;5042291;28;1238;-79
2023/06/08 03:08:11;;;;;;;;;;;;;;;12.98;78.83;101742.41;5035333;28;1380;-86
2023/06/08 03:10:46;;;;;;;;;;;;;;;12.95;78.63;101742.63;5043420;28;1409;-87
2023/06/08 03:13:41;;;;;;;;;;;;;;;12.93;78.31;101741.94;5059930;28;1362;-83
2023/06/08 03:16:12;;;;;;;;;;;;;;;12.92;78.80;101737.69;5054467;28;1336;-80
2023/06/08 03:18:50;;;;;;;;;;;;;;;12.95;78.37;101738.25;5045686;28;1231;-88
2023/06/08 03:21:28;;;;;;;;;;;;;;;12.95;78.35;101737.44;5044538;28;1573;-85
2023/06/08 03:23:58;;;;;;;;;;;;;;;12.92;78.66;101737.69;5049921;28;1392;-87
2023/06/08 03:26:26;;;;;;;;;;;;;;;12.90;78.95;101739.56;5039094;28;1299;-86
2023/06/08 03:29:02;;;;;;;;;;;;;;;12.84;79.51;101751.25;5045051;28;1435;-87
2023/06/08 03:31:36;;;;;;;;;;;;;;;12.79;79.84;101755.16;5057574;28;1037;-87
2023/06/08 03:34:05;;;;;;;;;;;;;;;12.77;79.26;101753.50;5045702;28;1470;-86
2023/06/08 03:36:43;;;;;;;;;;;;;;;12.77;79.57;101752.69;5040790;28;1458;-88
2023/06/08 03:39:08;;;;;;;;;;;;;;;12.72;79.56;101763.44;5053569;28;1984;-87
2023/06/08 03:41:36;;;;;;;;;;;;;;;12.71;79.20;101756.56;5055295;28;1202;-87
2023/06/08 03:44:01;;;;;;;;;;;;;;;12.70;79.59;101765.34;5057271;28;1129;-85
2023/06/08 03:46:35;;;;;;;;;;;;;;;12.67;80.20;101755.19;5056913;28;1315;-88
2023/06/08 03:49:01;;;;;;;;;;;;;;;12.60;79.49;101753.97;5053037;28;1062;-86
2023/06/08 03:51:26;;;;;;;;;;;;;;;12.55;80.07;101747.44;5078824;28;1369;-87
2023/06/08 03:57:24;;;;;;;;;;;;;;;12.51;81.72;101749.47;5027833;28;1381;-88
2023/06/08 03:59:50;;;;;;;;;;;;;;;12.41;81.27;101748.47;5020898;28;1961;-87
2023/06/08 04:02:41;;;;;;;;;;;;;;;12.38;81.92;101746.09;5046829;28;1332;-86
2023/06/08 04:05:39;;;;;;;;;;;;;;;12.37;80.99;101747.88;5041360;28;1243;-83
2023/06/08 04:08:21;;;;;;;;;;;;;;;12.40;81.40;101744.22;5041920;28;1336;-84
2023/06/08 04:10:53;;;;;;;;;;;;;;;12.40;81.16;101741.63;5050696;28;1293;-85
2023/06/08 04:13:46;;;;;;;;;;;;;;;;;;;;;
2023/06/08 04:16:22;;;;;;;;;;;;;;;;;;;;;
2023/06/08 04:19:03;;;;;;;;;;;;;;;12.42;81.57;101734.53;5052701;28;1937;-87
2023/06/08 04:21:30;;;;;;;;;;;;;;;12.37;81.74;101737.47;5047255;28;1165;-87
2023/06/08 04:24:03;;;;;;;;;;;;;;;12.39;80.79;101734.78;5048102;28;1127;-88
2023/06/08 04:26:36;;;;;;;;;;;;;;;12.36;82.53;101724.59;5058580;28;1487;-85
2023/06/08 04:29:04;;;;;;;;;;;;;;;12.31;81.79;101726.69;5033279;28;1066;-84
2023/06/08 04:31:30;;;;;;;;;;;;;;;12.32;81.50;101728.34;5046629;28;1368;-86
2023/06/08 04:33:58;;;;;;;;;;;;;;;12.30;81.82;101735.44;5037294;28;1354;-87
2023/06/08 04:36:23;;;;;;;;;;;;;;;12.33;81.29;101740.41;5044379;28;1296;-83
2023/06/08 04:38:51;;;;;;;;;;;;;;;12.37;82.25;101744.44;5049770;28;1894;-85
2023/06/08 04:41:18;;;;;;;;;;;;;;;12.30;82.54;101740.66;5052361;28;1193;-81
2023/06/08 04:43:44;;;;;;;;;;;;;;;12.25;82.27;101733.19;5056282;28;1452;-85
2023/06/08 04:46:11;;;;;;;;;;;;;;;12.26;81.44;101734.84;5058921;28;1536;-85
2023/06/08 04:48:37;;;;;;;;;;;;;;;12.28;82.22;101726.94;5047931;28;1192;-88
2023/06/08 04:51:04;;;;;;;;;;;;;;;12.26;82.04;101728.81;5047783;28;1496;-86
2023/06/08 04:53:35;;;;;;;;;;;;;;;12.23;81.75;101735.91;5054959;28;1340;-88
2023/06/08 04:56:04;;;;;;;;;;;;;;;12.27;82.03;101735.66;5049378;28;1128;-88
2023/06/08 04:58:37;;;;;;;;;;;;;;;12.28;82.35;101732.13;5049507;28;1099;-88
2023/06/08 05:01:07;;;;;;;;;;;;;;;12.29;82.60;101732.03;5037235;28;1973;-85
2023/06/08 05:03:35;;;;;;;;;;;;;;;12.30;81.69;101730.25;5054180;28;1088;-89
2023/06/08 05:06:06;;;;;;;;;;;;;;;12.33;82.54;101735.19;5053344;28;1175;-84
2023/06/08 05:08:31;;;;;;;;;;;;;;;12.33;81.74;101745.59;5051729;28;1478;-86
2023/06/08 05:10:56;;;;;;;;;;;;;;;12.30;81.98;101735.44;5045749;28;1301;-88
2023/06/08 05:13:21;;;;;;;;;;;;;;;12.29;82.47;101741.59;5060629;28;1297;-88
2023/06/08 05:15:47;;;;;;;;;;;;;;;12.30;82.87;101741.47;5060307;28;1207;-86
2023/06/08 05:18:12;;;;;;;;;;;;;;;12.36;82.20;101735.00;5058430;28;1519;-87
2023/06/08 05:20:37;;;;;;;;;;;;;;;12.43;82.85;101736.19;5052687;28;1910;-87
2023/06/08 05:23:02;;;;;;;;;;;;;;;12.43;82.53;101746.59;5056265;28;1571;-85
2023/06/08 05:25:29;;;;;;;;;;;;;;;12.46;82.30;101746.38;5058366;28;1429;-86
2023/06/08 05:27:55;;;;;;;;;;;;;;;12.43;82.61;101736.19;5046916;28;1445;-88
2023/06/08 05:30:20;;;;;;;;;;;;;;;12.48;81.53;101734.06;5044259;28;1313;-84
2023/06/08 05:32:45;;;;;;;;;;;;;;;12.49;82.33;101735.72;5046759;28;1398;-84
2023/06/08 05:35:10;;;;;;;;;;;;;;;12.53;81.97;101731.13;5053379;28;1594;-86
2023/06/08 05:37:35;;;;;;;;;;;;;;;12.60;81.84;101733.13;5058648;28;1198;-83
2023/06/08 05:40:01;;;;;;;;;;;;;;;12.62;82.45;101728.66;5052113;28;1947;-87
2023/06/08 05:42:26;;;;;;;;;;;;;;;12.63;81.98;101732.91;5052581;28;1392;-81
2023/06/08 05:44:51;;;;;;;;;;;;;;;12.68;81.59;101725.59;5058809;28;1172;-87
2023/06/08 05:47:16;;;;;;;;;;;;;;;12.72;81.98;101727.00;5061873;28;1151;-84
2023/06/08 05:49:42;;;;;;;;;;;;;;;12.76;81.64;101720.63;5057062;28;1313;-86
2023/06/08 05:52:07;;;;;;;;;;;;;;;12.85;81.36;101720.88;5055894;28;1502;-86
2023/06/08 05:54:32;;;;;;;;;;;;;;;12.89;80.69;101717.06;5058024;28;1184;-83
2023/06/08 05:56:57;;;;;;;;;;;;;;;12.96;80.63;101715.63;5055544;28;1345;-84
2023/06/08 05:59:23;;;;;;;;;;;;;;;13.03;80.50;101719.44;5064426;28;1948;-83
2023/06/08 06:01:48;;;;;;;;;;;;;;;13.06;80.95;101719.19;5042588;28;2407;-86
2023/06/08 06:04:14;;;;;;;;;;;;;;;13.15;80.33;101722.88;5055627;28;1199;-84
2023/06/08 06:06:39;;;;;;;;;;;;;;;13.20;80.13;101721.56;5073546;28;1269;-84
2023/06/08 06:09:05;;;;;;;;;;;;;;;13.27;79.93;101717.56;5051071;28;1214;-84
2023/06/08 06:11:30;;;;;;;;;;;;;;;13.32;79.45;101719.81;5048000;28;1563;-84
2023/06/08 06:13:56;;;;;;;;;;;;;;;13.34;79.05;101717.91;5044462;28;1484;-83
2023/06/08 06:16:21;;;;;;;;;;;;;;;13.40;79.03;101721.78;5053955;28;1302;-79
2023/06/08 06:18:46;;;;;;;;;;;;;;;13.50;79.07;101717.50;5053657;28;1989;-83
2023/06/08 06:21:12;;;;;;;;;;;;;;;13.56;78.81;101727.44;5044593;28;1544;-83
2023/06/08 06:23:37;;;;;;;;;;;;;;;13.59;78.78;101726.38;5055206;28;1210;-84
2023/06/08 06:26:02;;;;;;;;;;;;;;;13.65;78.05;101726.72;5055170;28;1177;-84
2023/06/08 06:28:28;;;;;;;;;;;;;;;13.67;78.40;101724.81;5051614;28;1209;-84
2023/06/08 06:30:53;;;;;;;;;;;;;;;13.75;78.35;101724.19;5047899;28;1270;-83
2023/06/08 06:33:18;;;;;;;;;;;;;;;13.81;77.98;101721.09;5045290;28;1277;-85
2023/06/08 06:35:43;;;;;;;;;;;;;;;13.83;78.04;101719.19;5065319;28;1300;-84
2023/06/08 06:38:08;;;;;;;;;;;;;;;13.93;77.88;101720.09;5050914;28;1418;-85
2023/06/08 06:40:33;;;;;;;;;;;;;;;14.01;77.81;101727.31;5045411;28;1961;-85
2023/06/08 06:42:59;;;;;;;;;;;;;;;14.07;77.69;101721.59;5043654;28;1484;-83
2023/06/08 06:45:25;;;;;;;;;;;;;;;14.07;77.16;101721.59;5058245;28;1250;-85
2023/06/08 06:47:50;;;;;;;;;;;;;;;14.12;77.26;101729.88;5047822;28;1224;-86
2023/06/08 06:50:15;;;;;;;;;;;;;;;14.22;77.09;101729.91;5052879;28;1175;-83
2023/06/08 06:52:40;;;;;;;;;;;;;;;14.29;77.32;101734.50;5046133;28;1285;-85
2023/06/08 06:55:06;;;;;;;;;;;;;;;14.37;77.03;101727.81;5058619;28;1166;-82
2023/06/08 06:57:32;;;;;;;;;;;;;;;14.47;76.82;101733.97;5058467;28;1147;-83
2023/06/08 06:59:58;;;;;;;;;;;;;;;14.57;76.57;101729.63;5054760;28;2007;-84
2023/06/08 07:02:25;;;;;;;;;;;;;;;14.70;76.51;101719.81;5045503;28;1348;-83
2023/06/08 07:04:52;;;;;;;;;;;;;;;14.83;76.59;101725.63;5053978;28;979;-81
2023/06/08 07:07:17;;;;;;;;;;;;;;;14.94;76.30;101731.72;5073655;28;1344;-82
2023/06/08 07:09:43;;;;;;;;;;;;;;;15.01;75.87;101732.84;5055099;28;1144;-83
2023/06/08 07:12:08;;;;;;;;;;;;;;;15.09;75.34;101730.41;5050413;28;1418;-85
2023/06/08 07:14:33;;;;;;;;;;;;;;;15.19;75.31;101735.66;5060115;28;1188;-85
2023/06/08 07:16:58;;;;;;;;;;;;;;;15.22;74.24;101723.16;5058915;28;1172;-85
2023/06/08 07:19:24;;;;;;;;;;;;;;;15.31;74.65;101735.44;5054370;28;1902;-84
2023/06/08 07:21:51;;;;;;;;;;;;;;;15.41;74.42;101720.59;5055520;28;1602;-82
2023/06/08 07:24:16;;;;;;;;;;;;;;;15.55;73.91;101731.63;5044542;28;1589;-85
2023/06/08 07:26:43;;;;;;;;;;;;;;;15.65;73.56;101732.50;5041534;28;1180;-84
2023/06/08 07:29:08;;;;;;;;;;;;;;;15.76;72.97;101734.97;5055199;28;1180;-84
2023/06/08 07:31:34;;;;;;;;;;;;;;;15.82;73.31;101733.59;5048976;28;1206;-81
2023/06/08 07:33:59;;;;;;;;;;;;;;;15.95;73.24;101728.13;5047181;28;1586;-84
2023/06/08 07:36:24;;;;;;;;;;;;;;;16.07;73.42;101727.00;5046251;28;1149;-84
2023/06/08 07:38:50;;;;;;;;;;;;;;;16.13;72.22;101727.28;5056951;28;1944;-83
2023/06/08 07:41:16;;;;;;;;;;;;;;;16.17;72.41;101722.56;5043976;28;1213;-85
2023/06/08 07:43:41;;;;;;;;;;;;;;;16.29;72.58;101726.72;5054812;28;1631;-84
2023/06/08 07:46:07;;;;;;;;;;;;;;;16.42;71.97;101729.84;5050649;28;1179;-83
2023/06/08 07:48:32;;;;;;;;;;;;;;;16.51;71.19;101724.72;5056598;28;1413;-84
2023/06/08 07:50:57;;;;;;;;;;;;;;;16.52;70.75;101724.59;5051737;28;1234;-82
2023/06/08 07:53:22;;;;;;;;;;;;;;;16.59;71.39;101732.72;5045054;28;1242;-81
2023/06/08 07:55:47;;;;;;;;;;;;;;;16.69;70.17;101728.28;5056302;28;1156;-83
2023/06/08 07:58:12;;;;;;;;;;;;;;;16.77;70.74;101730.19;5049192;28;1328;-83
2023/06/08 08:00:39;;;;;;;;;;;;;;;16.83;70.34;101724.38;5050829;28;1913;-85
2023/06/08 08:03:05;;;;;;;;;;;;;;;16.90;70.50;101715.78;5048339;28;1667;-86
2023/06/08 08:05:30;;;;;;;;;;;;;;;17.07;71.26;101721.25;5050810;28;1194;-86
2023/06/08 08:07:56;;;;;;;;;;;;;;;17.19;69.70;101722.69;5045284;28;1436;-82
2023/06/08 08:10:21;;;;;;;;;;;;;;;17.28;70.13;101718.38;5064560;28;1300;-85
2023/06/08 08:12:46;;;;;;;;;;;;;;;17.38;69.95;101719.97;5044295;28;1302;-85
2023/06/08 08:15:11;;;;;;;;;;;;;;;17.47;69.42;101718.25;5066304;28;1277;-85
2023/06/08 08:17:36;;;;;;;;;;;;;;;17.54;67.99;101721.91;5068891;28;1222;-84
2023/06/08 08:20:03;;;;;;;;;;;;;;;17.65;68.59;101726.13;5062581;28;1902;-86
2023/06/08 08:22:28;;;;;;;;;;;;;;;17.73;68.48;101718.38;5048717;28;1309;-83
2023/06/08 08:24:53;;;;;;;;;;;;;;;17.88;69.03;101722.09;5062375;28;1547;-86
2023/06/08 08:27:19;;;;;;;;;;;;;;;18.04;68.74;101727.50;5057784;28;1194;-85
2023/06/08 08:29:44;;;;;;;;;;;;;;;18.14;66.96;101727.41;5062499;28;1225;-83
2023/06/08 08:32:09;;;;;;;;;;;;;;;18.25;67.57;101726.34;5054552;28;1280;-86
2023/06/08 08:34:34;;;;;;;;;;;;;;;18.33;66.56;101728.19;5061908;28;1203;-86
2023/06/08 08:37:00;;;;;;;;;;;;;;;18.30;65.70;101726.72;5049406;28;1296;-85
2023/06/08 08:39:25;;;;;;;;;;;;;;;18.32;66.32;101732.63;5053121;28;1889;-82
2023/06/08 08:41:56;;;;;;;;;;;;;;;18.37;64.48;101727.75;5043166;28;1321;-86
2023/06/08 08:44:22;;;;;;;;;;;;;;;18.37;63.98;101722.50;5052052;28;1318;-83
2023/06/08 08:46:48;;;;;;;;;;;;;;;18.44;64.45;101728.75;5053425;28;1349;-84
2023/06/08 08:49:17;;;;;;;;;;;;;;;18.54;64.54;101734.75;5055563;28;1351;-83
2023/06/08 08:51:50;;;;;;;;;;;;;;;18.67;64.21;101726.47;5052370;28;1088;-84
2023/06/08 08:54:16;;;;;;;;;;;;;;;18.74;63.06;101719.59;5050423;28;1337;-85
2023/06/08 08:56:42;;;;;;;;;;;;;;;18.87;63.55;101724.44;5047979;28;1259;-84
2023/06/08 08:59:07;;;;;;;;;;;;;;;18.98;61.29;101721.53;5057398;28;1977;-85
2023/06/08 09:01:33;;;;;;;;;;;;;;;18.97;60.51;101719.88;5048054;28;1321;-83
2023/06/08 09:03:58;;;;;;;;;;;;;;;19.00;61.84;101724.00;5048909;28;1627;-84
2023/06/08 09:06:24;;;;;;;;;;;;;;;19.01;60.92;101721.22;5053496;28;1155;-82
2023/06/08 09:08:49;;;;;;;;;;;;;;;19.02;61.00;101733.38;5060110;28;1116;-83
2023/06/08 09:11:14;;;;;;;;;;;;;;;18.97;59.86;101719.88;5050186;28;1372;-83
2023/06/08 09:13:39;;;;;;;;;;;;;;;18.97;60.29;101716.41;5058779;28;1482;-84
2023/06/08 09:16:14;;;;;;;;;;;;;;;18.99;60.48;101723.19;5063609;28;1160;-83
2023/06/08 09:18:41;;;;;;;;;;;;;;;19.06;60.84;101726.81;5054534;28;1529;-80
2023/06/08 09:21:18;;;;;;;;;;;;;;;19.03;61.15;101728.94;5053844;28;1890;-82
2023/06/08 09:23:43;;;;;;;;;;;;;;;18.88;59.92;101725.28;5057845;28;1180;-82
2023/06/08 09:26:08;;;;;;;;;;;;;;;18.80;59.69;101718.97;5053102;28;1152;-78
2023/06/08 09:28:34;;;;;;;;;;;;;;;18.81;58.95;101714.56;5054102;28;1493;-79
2023/06/08 09:31:08;;;;;;;;;;;;;;;18.82;59.56;101721.47;5056081;28;1183;-79
2023/06/08 09:33:33;;;;;;;;;;;;;;;18.76;59.73;101722.09;5053722;28;1180;-79
2023/06/08 09:35:58;;;;;;;;;;;;;;;18.78;59.57;101717.50;5045512;28;1497;-79
2023/06/08 09:38:27;;;;;;;;;;;;;;;18.81;59.39;101698.78;5052354;28;1030;-78
2023/06/08 09:41:11;;;;;;;;;;;;;;;18.74;59.02;101703.00;5055257;28;2001;-80
2023/06/08 09:43:37;;;;;;;;;;;;;;;18.71;58.79;101698.91;5054282;28;1145;-79
2023/06/08 09:46:02;;;;;;;;;;;;;;;18.74;59.27;101695.13;5047852;28;1551;-80
2023/06/08 09:48:27;;;;;;;;;;;;;;;18.76;58.93;101691.38;5053505;28;1279;-80
2023/06/08 09:51:01;;;;;;;;;;;;;;;18.87;59.85;101687.66;5052251;28;1120;-81
2023/06/08 09:53:28;;;;;;;;;;;;;;;19.00;59.08;101693.28;5058948;28;1091;-79
2023/06/08 09:55:53;;;;;;;;;;;;;;;19.19;59.01;101688.72;5053553;28;1546;-81
2023/06/08 09:58:20;;;;;;;;;;;;;;;19.33;59.06;101696.00;5049847;28;1135;-82
2023/06/08 10:00:46;;;;;;;;;;;;;;;19.45;57.35;101692.06;5058786;28;1893;-79
2023/06/08 10:03:28;;;;;;;;;;;;;;;19.45;58.63;101686.81;5053447;28;1215;-81
2023/06/08 10:05:54;;;;;;;;;;;;;;;19.54;58.36;101685.81;5051900;28;1361;-80
2023/06/08 10:08:21;;;;;;;;;;;;;;;19.52;57.03;101682.53;5053715;28;1180;-81
2023/06/08 10:10:47;;;;;;;;;;;;;;;19.48;57.32;101686.47;5084489;28;1399;-81
2023/06/08 10:13:12;;;;;;;;;;;;;;;19.44;56.52;101690.44;5053301;28;1308;-80
2023/06/08 10:15:38;;;;;;;;;;;;;;;19.46;57.57;101683.19;5070783;28;1308;-82
2023/06/08 10:18:03;;;;;;;;;;;;;;;19.55;57.91;101682.19;5044872;28;1105;-79
2023/06/08 10:20:29;;;;;;;;;;;;;;;19.63;57.08;101679.63;5050737;28;1917;-79
2023/06/08 10:22:56;;;;;;;;;;;;;;;19.73;57.70;101673.41;5054566;28;1127;-80
2023/06/08 10:25:22;;;;;;;;;;;;;;;19.93;58.67;101673.88;5053953;28;1551;-80
2023/06/08 10:27:50;;;;;;;;;;;;;;;20.19;58.18;101673.69;5058237;28;1044;-80
2023/06/08 10:30:30;;;;;;;;;;;;;;;20.39;56.29;101667.03;5042772;28;1422;-81
2023/06/08 10:33:16;;;;;;;;;;;;;;;20.50;55.01;101671.97;5048854;28;1148;-83
2023/06/08 10:35:43;;;;;;;;;;;;;;;20.50;56.11;101671.97;5052317;28;1360;-81
2023/06/08 10:38:09;;;;;;;;;;;;;;;20.48;54.70;101670.50;5048228;28;1341;-81
2023/06/08 10:40:41;;;;;;;;;;;;;;;20.47;55.91;101660.94;5052970;28;1961;-81
2023/06/08 10:43:07;;;;;;;;;;;;;;;20.59;55.26;101660.44;5055228;28;1364;-81
2023/06/08 10:45:35;;;;;;;;;;;;;;;20.74;55.70;101651.78;5047453;28;1317;-80
2023/06/08 10:48:01;;;;;;;;;;;;;;;20.85;54.19;101659.31;5047638;28;1583;-80
2023/06/08 10:50:30;;;;;;;;;;;;;;;20.90;53.99;101656.97;5053024;28;1363;-81
2023/06/08 10:52:58;;;;;;;;;;;;;;;20.96;54.14;101656.28;5056973;28;1207;-80
2023/06/08 10:55:25;;;;;;;;;;;;;;;21.11;55.17;101648.47;5050253;28;1392;-81
2023/06/08 10:57:52;;;;;;;;;;;;;;;21.27;53.40;101658.09;5047108;28;1368;-79
2023/06/08 11:00:20;;;;;;;;;;;;;;;21.43;53.16;101652.72;5052095;28;1960;-80
2023/06/08 11:02:46;;;;;;;;;;;;;;;21.49;54.58;101657.28;5056767;28;1399;-80
2023/06/08 11:05:12;;;;;;;;;;;;;;;21.61;54.56;101645.31;5049484;28;1186;-80
2023/06/08 11:07:37;;;;;;;;;;;;;;;21.75;53.19;101646.38;5050090;28;1089;-79
2023/06/08 11:10:03;;;;;;;;;;;;;;;21.85;53.52;101635.53;5048395;28;1488;-79
2023/06/08 11:12:28;;;;;;;;;;;;;;;21.96;53.51;101632.47;5057715;28;1192;-80
2023/06/08 11:14:53;;;;;;;;;;;;;;;22.09;53.33;101626.56;5052420;28;1230;-80
2023/06/08 11:17:19;;;;;;;;;;;;;;;22.16;52.80;101632.81;5053731;28;1306;-80
2023/06/08 11:19:44;;;;;;;;;;;;;;;22.15;51.56;101624.06;5061428;28;1945;-79
2023/06/08 11:22:09;;;;;;;;;;;;;;;22.25;52.70;101632.53;5053859;28;1222;-79
2023/06/08 11:24:34;;;;;;;;;;;;;;;22.36;53.22;101627.78;5060922;28;1198;-79
2023/06/08 11:27:00;;;;;;;;;;;;;;;22.41;52.78;101622.75;5052225;28;1499;-80
2023/06/08 11:29:28;;;;;;;;;;;;;;;22.53;52.59;101618.63;5058872;28;1167;-79
2023/06/08 11:31:54;;;;;;;;;;;;;;;22.62;51.40;101606.97;5056889;28;1164;-79
2023/06/08 11:34:21;;;;;;;;;;;;;;;22.72;52.92;101622.56;5049579;28;1613;-78
2023/06/08 11:36:48;;;;;;;;;;;;;;;22.84;52.20;101609.66;5054798;28;1310;-76
2023/06/08 11:39:14;;;;;;;;;;;;;;;22.91;51.55;101611.41;5054215;28;1965;-76
2023/06/08 11:41:46;;;;;;;;;;;;;;;23.01;52.54;101616.38;5064134;28;1120;-77
2023/06/08 11:44:15;;;;;;;;;;;;;;;23.16;52.09;101600.44;5050261;28;1538;-77
2023/06/08 11:46:40;;;;;;;;;;;;;;;23.27;51.26;101600.75;5049954;28;1056;-77
2023/06/08 11:49:09;;;;;;;;;;;;;;;23.32;50.94;101595.72;5053201;28;1372;-77
2023/06/08 11:51:41;;;;;;;;;;;;;;;23.38;51.14;101595.97;5055025;28;1140;-77
2023/06/08 11:54:07;;;;;;;;;;;;;;;23.50;50.52;101595.25;5055920;28;1161;-78
2023/06/08 11:56:35;;;;;;;;;;;;;;;23.59;50.99;101593.28;5048505;28;1569;-77
2023/06/08 11:59:02;;;;;;;;;;;;;;;23.60;49.86;101589.63;5061575;28;1906;-77
2023/06/08 12:01:28;;;;;;;;;;;;;;;23.57;50.88;101579.44;5050256;28;1188;-77
2023/06/08 12:03:53;;;;;;;;;;;;;;;23.65;51.18;101581.94;5055565;28;1372;-77
2023/06/08 12:06:24;;;;;;;;;;;;;;;23.78;50.33;101581.22;5052323;28;1243;-78
2023/06/08 12:08:49;;;;;;;;;;;;;;;23.88;50.06;101586.19;5059850;28;1348;-78
2023/06/08 12:11:14;;;;;;;;;;;;;;;23.89;49.67;101574.56;5049029;28;1273;-79
2023/06/08 12:13:40;;;;;;;;;;;;;;;23.98;49.61;101570.75;5060108;28;1144;-79
2023/06/08 12:16:06;;;;;;;;;;;;;;;24.03;48.97;101569.16;5055503;28;1484;-79
2023/06/08 12:18:38;;;;;;;;;;;;;;;24.03;48.25;101557.75;5051033;28;1518;-80
2023/06/08 12:21:06;;;;;;;;;;;;;;;24.00;49.10;101566.06;5049559;28;1901;-79
2023/06/08 12:23:31;;;;;;;;;;;;;;;24.09;49.31;101557.78;5051678;28;1257;-79
2023/06/08 12:25:56;;;;;;;;;;;;;;;24.19;48.83;101552.09;5051762;28;1048;-81
2023/06/08 12:28:23;;;;;;;;;;;;;;;24.32;48.10;101549.50;5040287;28;1627;-77
2023/06/08 12:30:48;;;;;;;;;;;;;;;24.44;47.99;101543.69;5043946;28;1140;-80
2023/06/08 12:33:20;;;;;;;;;;;;;;;24.47;47.18;101548.56;5059087;28;1170;-79
2023/06/08 12:35:46;;;;;;;;;;;;;;;24.51;48.00;101539.19;5068215;28;1196;-79
2023/06/08 12:38:12;;;;;;;;;;;;;;;24.50;46.73;101542.88;5051000;28;1367;-79
2023/06/08 12:40:37;;;;;;;;;;;;;;;24.55;46.34;101535.97;5047749;28;1894;-78
2023/06/08 12:43:02;;;;;;;;;;;;;;;24.63;47.44;101537.59;5051658;28;1147;-78
2023/06/08 12:45:28;;;;;;;;;;;;;;;24.67;47.08;101538.84;5049409;28;1122;-77
2023/06/08 12:47:53;;;;;;;;;;;;;;;24.72;46.46;101531.09;5041865;28;1440;-78
2023/06/08 12:50:22;;;;;;;;;;;;;;;24.74;46.65;101523.75;5046452;28;1153;-78
2023/06/08 12:52:47;;;;;;;;;;;;;;;24.70;46.85;101522.50;5059780;28;1120;-77
2023/06/08 12:55:13;;;;;;;;;;;;;;;24.80;47.14;101517.63;5040681;28;1257;-77
2023/06/08 12:57:38;;;;;;;;;;;;;;;24.85;45.24;101506.41;5054565;28;1198;-77
2023/06/08 13:00:04;;;;;;;;;;;;;;;24.87;46.89;101521.09;5055544;28;1958;-76
2023/06/08 13:02:30;;;;;;;;;;;;;;;24.90;46.70;101518.06;5057901;28;1315;-76
2023/06/08 13:04:55;;;;;;;;;;;;;;;24.92;44.91;101509.06;5053076;28;1321;-78
2023/06/08 13:07:20;;;;;;;;;;;;;;;24.92;46.28;101509.06;5054929;28;1388;-77
2023/06/08 13:09:46;;;;;;;;;;;;;;;24.96;46.23;101510.31;5050961;28;1184;-75
2023/06/08 13:12:11;;;;;;;;;;;;;;;25.02;45.72;101504.19;5060252;28;1102;-77
2023/06/08 13:14:37;;;;;;;;;;;;;;;25.01;45.15;101502.56;5060778;28;1127;-77
2023/06/08 13:17:02;;;;;;;;;;;;;;;25.07;45.93;101507.88;5061321;28;1533;-77
2023/06/08 13:19:28;;;;;;;;;;;;;;;25.13;45.58;101511.56;5050871;28;1956;-77